createdAt,value
2018-12-29T00:00:19.181Z,1023.16
2018-12-29T00:01:19.164Z,1023.12
2018-12-29T00:02:19.109Z,1023.08
2018-12-29T00:03:19.069Z,1023.07
2018-12-29T00:04:19.032Z,1023.06
2018-12-29T00:05:18.994Z,1023.05
2018-12-29T00:06:18.953Z,1023.00
2018-12-29T00:07:18.917Z,1023.03
2018-12-29T00:08:18.904Z,1023.00
2018-12-29T00:09:18.842Z,1023.00
2018-12-29T00:10:18.804Z,1023.02
2018-12-29T00:11:18.764Z,1022.98
2018-12-29T00:12:18.722Z,1023.00
2018-12-29T00:13:18.714Z,1023.01
2018-12-29T00:14:18.652Z,1022.90
2018-12-29T00:15:18.622Z,1022.95
2018-12-29T00:16:18.579Z,1022.97
2018-12-29T00:17:18.549Z,1022.96
2018-12-29T00:18:18.510Z,1022.99
2018-12-29T00:19:18.453Z,1023.00
2018-12-29T00:20:18.463Z,1023.00
2018-12-29T00:21:18.379Z,1022.98
2018-12-29T00:22:18.351Z,1023.02
2018-12-29T00:23:18.307Z,1022.96
2018-12-29T00:24:18.271Z,1022.94
2018-12-29T00:25:18.231Z,1022.94
2018-12-29T00:26:18.201Z,1022.92
2018-12-29T00:27:18.155Z,1022.95
2018-12-29T00:28:18.145Z,1023.04
2018-12-29T00:29:18.114Z,1023.09
2018-12-29T00:30:18.082Z,1023.11
2018-12-29T00:31:18.006Z,1023.08
2018-12-29T00:32:17.969Z,1023.02
2018-12-29T00:33:17.934Z,1023.02
2018-12-29T00:34:17.910Z,1023.02
2018-12-29T00:35:17.850Z,1023.06
2018-12-29T00:36:17.812Z,1023.06
2018-12-29T00:37:17.775Z,1023.03
2018-12-29T00:38:17.735Z,1022.94
2018-12-29T00:39:17.723Z,1022.84
2018-12-29T00:40:17.666Z,1022.93
2018-12-29T00:41:17.630Z,1022.92
2018-12-29T00:42:17.592Z,1022.98
2018-12-29T00:43:17.550Z,1022.98
2018-12-29T00:44:17.515Z,1022.95
2018-12-29T00:45:17.478Z,1022.97
2018-12-29T00:46:17.460Z,1023.01
2018-12-29T00:47:17.406Z,1023.08
2018-12-29T00:48:17.364Z,1023.07
2018-12-29T00:49:17.328Z,1023.09
2018-12-29T00:50:17.290Z,1023.09
2018-12-29T00:51:17.247Z,1023.15
2018-12-29T00:52:17.234Z,1023.15
2018-12-29T00:53:17.182Z,1023.15
2018-12-29T00:54:17.133Z,1023.12
2018-12-29T00:55:17.097Z,1023.20
2018-12-29T00:56:17.062Z,1023.24
2018-12-29T00:57:17.022Z,1023.20
2018-12-29T00:58:16.987Z,1023.30
2018-12-29T00:59:17.032Z,1023.35
2018-12-29T01:00:16.927Z,1023.36
2018-12-29T01:01:16.878Z,1023.34
2018-12-29T01:02:16.856Z,1023.38
2018-12-29T01:03:16.804Z,1023.36
2018-12-29T01:04:16.768Z,1023.30
2018-12-29T01:05:16.722Z,1023.36
2018-12-29T01:06:16.682Z,1023.32
2018-12-29T01:07:16.648Z,1023.36
2018-12-29T01:08:16.619Z,1023.36
2018-12-29T01:09:16.565Z,1023.34
2018-12-29T01:10:16.567Z,1023.32
2018-12-29T01:11:16.508Z,1023.31
2018-12-29T01:12:16.456Z,1023.25
2018-12-29T01:13:16.420Z,1023.26
2018-12-29T01:14:16.383Z,1023.27
2018-12-29T01:15:16.348Z,1023.28
2018-12-29T01:16:16.337Z,1023.24
2018-12-29T01:17:16.303Z,1023.23
2018-12-29T01:18:16.229Z,1023.27
2018-12-29T01:19:16.191Z,1023.28
2018-12-29T01:20:16.159Z,1023.18
2018-12-29T01:21:16.127Z,1023.20
2018-12-29T01:22:16.087Z,1023.20
2018-12-29T01:23:16.059Z,1023.05
2018-12-29T01:24:16.008Z,1023.24
2018-12-29T01:25:16.025Z,1023.20
2018-12-29T01:26:15.931Z,1023.17
2018-12-29T01:27:15.897Z,1023.18
2018-12-29T01:28:15.855Z,1023.19
2018-12-29T01:29:15.836Z,1023.23
2018-12-29T01:30:15.782Z,1023.20
2018-12-29T01:31:15.748Z,1023.18
2018-12-29T01:32:15.705Z,1023.22
2018-12-29T01:33:15.665Z,1023.33
2018-12-29T01:34:15.639Z,1023.32
2018-12-29T01:35:15.620Z,1023.32
2018-12-29T01:36:15.554Z,1023.30
2018-12-29T01:37:15.878Z,1023.29
2018-12-29T01:38:15.496Z,1023.29
2018-12-29T01:39:15.440Z,1023.29
2018-12-29T01:40:15.397Z,1023.22
2018-12-29T01:41:15.363Z,1023.26
2018-12-29T01:42:15.333Z,1023.26
2018-12-29T01:43:15.377Z,1023.24
2018-12-29T01:44:15.252Z,1023.23
2018-12-29T01:45:17.656Z,1023.28
2018-12-29T01:46:15.198Z,1023.24
2018-12-29T01:47:15.141Z,1023.26
2018-12-29T01:48:15.110Z,1023.30
2018-12-29T01:49:15.098Z,1023.27
2018-12-29T01:50:15.200Z,1023.29
2018-12-29T01:51:14.993Z,1023.15
2018-12-29T01:52:15.006Z,1023.33
2018-12-29T01:53:14.940Z,1023.30
2018-12-29T01:54:14.900Z,1023.30
2018-12-29T01:55:14.839Z,1023.32
2018-12-29T01:56:14.827Z,1023.35
2018-12-29T01:57:14.772Z,1023.36
2018-12-29T01:58:14.743Z,1023.41
2018-12-29T01:59:14.690Z,1023.38
2018-12-29T02:00:14.662Z,1023.35
2018-12-29T02:01:14.624Z,1023.34
2018-12-29T02:02:14.581Z,1023.32
2018-12-29T02:03:14.542Z,1023.32
2018-12-29T02:04:14.499Z,1023.30
2018-12-29T02:05:14.467Z,1023.36
2018-12-29T02:06:14.431Z,1023.35
2018-12-29T02:07:14.393Z,1023.40
2018-12-29T02:08:14.348Z,1023.35
2018-12-29T02:09:14.356Z,1023.38
2018-12-29T02:10:14.274Z,1023.37
2018-12-29T02:11:14.260Z,1023.42
2018-12-29T02:12:14.207Z,1023.34
2018-12-29T02:13:14.162Z,1023.41
2018-12-29T02:14:14.125Z,1023.42
2018-12-29T02:15:14.087Z,1023.39
2018-12-29T02:16:14.051Z,1023.46
2018-12-29T02:17:14.318Z,1023.42
2018-12-29T02:18:13.978Z,1023.40
2018-12-29T02:19:13.967Z,1023.43
2018-12-29T02:20:13.902Z,1023.37
2018-12-29T02:21:13.863Z,1023.41
2018-12-29T02:22:13.818Z,1023.37
2018-12-29T02:23:13.779Z,1023.34
2018-12-29T02:24:13.749Z,1023.38
2018-12-29T02:25:13.711Z,1023.39
2018-12-29T02:26:13.677Z,1023.29
2018-12-29T02:27:13.632Z,1023.35
2018-12-29T02:28:13.598Z,1023.29
2018-12-29T02:29:13.561Z,1023.34
2018-12-29T02:30:13.529Z,1023.31
2018-12-29T02:31:13.486Z,1023.28
2018-12-29T02:32:13.456Z,1023.30
2018-12-29T02:33:13.406Z,1023.28
2018-12-29T02:34:13.395Z,1023.27
2018-12-29T02:35:13.326Z,1023.28
2018-12-29T02:36:13.303Z,1023.34
2018-12-29T02:37:13.265Z,1023.27
2018-12-29T02:38:13.217Z,1023.21
2018-12-29T02:39:13.181Z,1023.22
2018-12-29T02:40:13.150Z,1023.32
2018-12-29T02:41:13.136Z,1023.25
2018-12-29T02:42:13.081Z,1023.32
2018-12-29T02:43:13.028Z,1023.29
2018-12-29T02:44:12.986Z,1023.18
2018-12-29T02:45:12.974Z,1023.27
2018-12-29T02:46:12.910Z,1023.10
2018-12-29T02:47:12.882Z,1023.19
2018-12-29T02:48:12.838Z,1023.27
2018-12-29T02:49:12.808Z,1023.27
2018-12-29T02:50:14.635Z,1023.27
2018-12-29T02:51:12.727Z,1023.28
2018-12-29T02:52:12.697Z,1023.31
2018-12-29T02:53:12.671Z,1023.35
2018-12-29T02:54:12.609Z,1023.37
2018-12-29T02:55:12.572Z,1023.33
2018-12-29T02:56:12.541Z,1023.31
2018-12-29T02:57:12.504Z,1023.34
2018-12-29T02:58:12.485Z,1023.32
2018-12-29T02:59:12.483Z,1023.32
2018-12-29T03:00:12.394Z,1023.35
2018-12-29T03:01:12.347Z,1023.39
2018-12-29T03:02:12.318Z,1023.39
2018-12-29T03:03:12.273Z,1023.32
2018-12-29T03:04:12.286Z,1023.30
2018-12-29T03:05:12.229Z,1023.29
2018-12-29T03:06:12.165Z,1023.33
2018-12-29T03:07:12.149Z,1023.29
2018-12-29T03:08:12.130Z,1023.36
2018-12-29T03:09:12.081Z,1023.36
2018-12-29T03:10:12.029Z,1023.36
2018-12-29T03:11:12.263Z,1023.39
2018-12-29T03:12:11.935Z,1023.40
2018-12-29T03:13:12.243Z,1023.34
2018-12-29T03:14:11.987Z,1023.39
2018-12-29T03:15:11.837Z,1023.35
2018-12-29T03:16:11.791Z,1023.45
2018-12-29T03:17:11.752Z,1023.43
2018-12-29T03:18:11.715Z,1023.45
2018-12-29T03:19:11.675Z,1023.45
2018-12-29T03:20:11.640Z,1023.47
2018-12-29T03:21:11.615Z,1023.46
2018-12-29T03:22:11.578Z,1023.42
2018-12-29T03:23:11.534Z,1023.40
2018-12-29T03:24:11.499Z,1023.39
2018-12-29T03:25:11.455Z,1023.44
2018-12-29T03:26:11.415Z,1023.45
2018-12-29T03:27:11.402Z,1023.43
2018-12-29T03:28:12.047Z,1023.38
2018-12-29T03:29:12.047Z,1023.40
2018-12-29T03:30:11.275Z,1023.38
2018-12-29T03:31:12.123Z,1023.34
2018-12-29T03:32:11.199Z,1023.38
2018-12-29T03:33:11.154Z,1023.39
2018-12-29T03:34:11.114Z,1023.40
2018-12-29T03:35:11.074Z,1023.38
2018-12-29T03:36:11.036Z,1023.45
2018-12-29T03:37:11.000Z,1023.41
2018-12-29T03:38:10.959Z,1023.33
2018-12-29T03:39:10.922Z,1023.34
2018-12-29T03:40:10.887Z,1023.38
2018-12-29T03:41:10.861Z,1023.32
2018-12-29T03:42:10.816Z,1023.37
2018-12-29T03:43:10.803Z,1023.38
2018-12-29T03:44:10.724Z,1023.38
2018-12-29T03:45:10.689Z,1023.33
2018-12-29T03:46:10.651Z,1023.35
2018-12-29T03:47:10.632Z,1023.34
2018-12-29T03:48:10.580Z,1023.33
2018-12-29T03:49:10.544Z,1023.32
2018-12-29T03:50:10.505Z,1023.34
2018-12-29T03:51:10.463Z,1023.34
2018-12-29T03:52:10.429Z,1023.36
2018-12-29T03:53:10.415Z,1023.26
2018-12-29T03:54:10.367Z,1023.34
2018-12-29T03:55:10.330Z,1023.25
2018-12-29T03:56:10.276Z,1023.20
2018-12-29T03:57:10.240Z,1023.25
2018-12-29T03:58:10.196Z,1023.21
2018-12-29T03:59:10.162Z,1023.25
2018-12-29T04:00:10.135Z,1023.24
2018-12-29T04:01:10.105Z,1023.07
2018-12-29T04:02:10.051Z,1023.12
2018-12-29T04:03:10.007Z,1023.23
2018-12-29T04:04:09.975Z,1023.21
2018-12-29T04:05:09.930Z,1023.27
2018-12-29T04:06:09.896Z,1023.23
2018-12-29T04:07:09.866Z,1023.14
2018-12-29T04:08:09.819Z,1023.19
2018-12-29T04:09:09.780Z,1023.24
2018-12-29T04:10:09.742Z,1023.10
2018-12-29T04:11:09.705Z,1023.20
2018-12-29T04:12:09.707Z,1023.24
2018-12-29T04:13:09.628Z,1023.23
2018-12-29T04:14:09.606Z,1023.20
2018-12-29T04:15:09.571Z,1023.20
2018-12-29T04:16:09.511Z,1023.13
2018-12-29T04:17:09.487Z,1023.15
2018-12-29T04:18:09.434Z,1023.12
2018-12-29T04:19:09.401Z,1023.11
2018-12-29T04:20:09.361Z,1023.13
2018-12-29T04:21:09.319Z,1023.13
2018-12-29T04:22:09.287Z,1023.12
2018-12-29T04:23:09.254Z,1023.11
2018-12-29T04:24:09.213Z,1023.16
2018-12-29T04:25:09.172Z,1023.13
2018-12-29T04:26:09.136Z,1023.11
2018-12-29T04:27:09.095Z,1023.02
2018-12-29T04:28:09.062Z,1023.14
2018-12-29T04:29:09.048Z,1023.03
2018-12-29T04:30:09.016Z,1023.14
2018-12-29T04:31:08.935Z,1023.15
2018-12-29T04:32:09.222Z,1023.10
2018-12-29T04:33:08.865Z,1023.05
2018-12-29T04:34:08.829Z,1023.10
2018-12-29T04:35:08.790Z,1023.07
2018-12-29T04:36:08.754Z,1023.07
2018-12-29T04:37:08.712Z,1023.07
2018-12-29T04:38:08.675Z,1023.01
2018-12-29T04:39:08.639Z,1023.02
2018-12-29T04:40:08.599Z,1022.92
2018-12-29T04:41:08.630Z,1022.92
2018-12-29T04:42:08.528Z,1022.93
2018-12-29T04:43:08.486Z,1022.92
2018-12-29T04:44:08.442Z,1022.79
2018-12-29T04:45:08.407Z,1022.95
2018-12-29T04:46:08.371Z,1022.92
2018-12-29T04:47:08.875Z,1022.96
2018-12-29T04:48:08.303Z,1022.91
2018-12-29T04:49:08.258Z,1022.84
2018-12-29T04:50:08.214Z,1022.88
2018-12-29T04:51:08.175Z,1022.93
2018-12-29T04:53:21.497Z,1022.99
2018-12-29T04:54:21.430Z,1022.94
2018-12-29T04:55:21.393Z,1022.97
2018-12-29T04:56:21.354Z,1022.95
2018-12-29T04:57:21.329Z,1023.01
2018-12-29T04:58:21.278Z,1022.94
2018-12-29T04:59:21.242Z,1022.83
2018-12-29T05:00:21.214Z,1022.88
2018-12-29T05:01:21.160Z,1022.90
2018-12-29T05:02:21.125Z,1022.90
2018-12-29T05:03:21.081Z,1022.88
2018-12-29T05:04:21.048Z,1022.88
2018-12-29T05:05:21.032Z,1022.86
2018-12-29T05:06:20.991Z,1022.93
2018-12-29T05:07:20.933Z,1022.78
2018-12-29T05:08:20.932Z,1022.78
2018-12-29T05:09:20.929Z,1022.78
2018-12-29T05:10:20.842Z,1022.79
2018-12-29T05:11:20.780Z,1022.80
2018-12-29T05:12:20.809Z,1022.78
2018-12-29T05:13:20.720Z,1022.80
2018-12-29T05:14:20.668Z,1022.80
2018-12-29T05:15:20.629Z,1022.81
2018-12-29T05:16:20.599Z,1022.80
2018-12-29T05:17:20.578Z,1022.81
2018-12-29T05:18:20.985Z,1022.77
2018-12-29T05:19:20.985Z,1022.74
2018-12-29T05:20:20.435Z,1022.74
2018-12-29T05:21:20.413Z,1022.77
2018-12-29T05:22:20.358Z,1022.78
2018-12-29T05:23:20.362Z,1022.73
2018-12-29T05:24:20.288Z,1022.78
2018-12-29T05:25:20.245Z,1022.73
2018-12-29T05:26:20.235Z,1022.77
2018-12-29T05:27:20.167Z,1022.81
2018-12-29T05:28:20.135Z,1022.65
2018-12-29T05:29:20.092Z,1022.79
2018-12-29T05:30:20.119Z,1022.85
2018-12-29T05:31:20.027Z,1022.73
2018-12-29T05:32:19.979Z,1022.85
2018-12-29T05:33:19.944Z,1022.89
2018-12-29T05:34:19.907Z,1022.72
2018-12-29T05:35:19.862Z,1022.79
2018-12-29T05:36:19.827Z,1022.80
2018-12-29T05:37:19.786Z,1022.76
2018-12-29T05:38:19.763Z,1022.78
2018-12-29T05:39:19.710Z,1022.79
2018-12-29T05:40:19.671Z,1022.84
2018-12-29T05:41:19.635Z,1022.88
2018-12-29T05:42:19.605Z,1022.86
2018-12-29T05:43:19.582Z,1022.90
2018-12-29T05:44:19.523Z,1022.91
2018-12-29T05:45:19.489Z,1022.85
2018-12-29T05:46:20.587Z,1022.91
2018-12-29T05:47:19.445Z,1022.97
2018-12-29T05:48:19.367Z,1022.88
2018-12-29T05:49:19.324Z,1022.99
2018-12-29T05:50:19.289Z,1022.99
2018-12-29T05:51:19.251Z,1023.05
2018-12-29T05:52:19.271Z,1023.11
2018-12-29T05:53:19.176Z,1023.15
2018-12-29T05:54:19.139Z,1023.16
2018-12-29T05:55:19.134Z,1023.20
2018-12-29T05:56:19.223Z,1023.23
2018-12-29T05:57:19.029Z,1023.19
2018-12-29T05:58:18.985Z,1023.17
2018-12-29T05:59:18.947Z,1023.19
2018-12-29T06:00:18.909Z,1023.12
2018-12-29T06:01:18.866Z,1023.15
2018-12-29T06:02:18.829Z,1023.25
2018-12-29T06:03:18.835Z,1023.20
2018-12-29T06:04:18.756Z,1023.24
2018-12-29T06:05:18.716Z,1023.27
2018-12-29T06:06:18.681Z,1023.28
2018-12-29T06:07:18.682Z,1023.29
2018-12-29T06:08:18.594Z,1023.28
2018-12-29T06:09:18.559Z,1023.26
2018-12-29T06:10:18.534Z,1023.31
2018-12-29T06:11:18.504Z,1023.36
2018-12-29T06:12:18.450Z,1023.34
2018-12-29T06:13:18.451Z,1023.48
2018-12-29T06:14:18.366Z,1023.53
2018-12-29T06:15:18.350Z,1023.53
2018-12-29T06:16:18.302Z,1023.55
2018-12-29T06:17:18.257Z,1023.55
2018-12-29T06:18:18.221Z,1023.52
2018-12-29T06:19:18.203Z,1023.55
2018-12-29T06:20:18.146Z,1023.53
2018-12-29T06:21:18.119Z,1023.57
2018-12-29T06:22:18.070Z,1023.58
2018-12-29T06:23:18.039Z,1023.49
2018-12-29T06:24:18.010Z,1023.51
2018-12-29T06:25:17.975Z,1023.55
2018-12-29T06:26:17.919Z,1023.54
2018-12-29T06:27:17.879Z,1023.54
2018-12-29T06:28:17.840Z,1023.50
2018-12-29T06:29:17.801Z,1023.36
2018-12-29T06:30:17.776Z,1023.44
2018-12-29T06:31:17.723Z,1023.51
2018-12-29T06:32:17.687Z,1023.54
2018-12-29T06:33:17.651Z,1023.49
2018-12-29T06:34:17.612Z,1023.65
2018-12-29T06:35:17.879Z,1023.63
2018-12-29T06:36:17.541Z,1023.57
2018-12-29T06:37:17.499Z,1023.59
2018-12-29T06:38:17.461Z,1023.61
2018-12-29T06:39:17.424Z,1023.53
2018-12-29T06:40:17.384Z,1023.52
2018-12-29T06:41:17.347Z,1023.52
2018-12-29T06:42:17.316Z,1023.55
2018-12-29T06:43:18.057Z,1023.58
2018-12-29T06:44:17.236Z,1023.56
2018-12-29T06:45:17.198Z,1023.52
2018-12-29T06:46:17.158Z,1023.60
2018-12-29T06:47:17.196Z,1023.64
2018-12-29T06:48:17.192Z,1023.62
2018-12-29T06:49:17.046Z,1023.66
2018-12-29T06:50:16.999Z,1023.68
2018-12-29T06:51:16.962Z,1023.68
2018-12-29T06:52:16.930Z,1023.65
2018-12-29T06:53:16.891Z,1023.62
2018-12-29T06:54:16.859Z,1023.60
2018-12-29T06:55:16.812Z,1023.66
2018-12-29T06:56:16.777Z,1023.74
2018-12-29T06:57:16.739Z,1023.70
2018-12-29T06:58:16.703Z,1023.61
2018-12-29T06:59:16.663Z,1023.63
2018-12-29T07:00:16.624Z,1023.67
2018-12-29T07:01:16.587Z,1023.74
2018-12-29T07:02:16.549Z,1023.72
2018-12-29T07:03:16.514Z,1023.70
2018-12-29T07:04:16.472Z,1023.72
2018-12-29T07:05:16.437Z,1023.78
2018-12-29T07:06:16.397Z,1023.71
2018-12-29T07:07:16.645Z,1023.78
2018-12-29T07:08:16.321Z,1023.78
2018-12-29T07:09:16.283Z,1023.80
2018-12-29T07:10:16.243Z,1023.77
2018-12-29T07:11:16.209Z,1023.67
2018-12-29T07:12:16.171Z,1023.79
2018-12-29T07:13:16.134Z,1023.86
2018-12-29T07:14:16.093Z,1023.83
2018-12-29T07:15:16.053Z,1023.87
2018-12-29T07:16:16.016Z,1023.87
2018-12-29T07:17:15.982Z,1023.81
2018-12-29T07:18:15.942Z,1023.79
2018-12-29T07:19:15.904Z,1023.83
2018-12-29T07:20:15.892Z,1023.84
2018-12-29T07:21:15.830Z,1023.82
2018-12-29T07:22:15.786Z,1023.81
2018-12-29T07:23:15.868Z,1023.84
2018-12-29T07:24:15.713Z,1023.81
2018-12-29T07:25:15.673Z,1023.84
2018-12-29T07:26:15.634Z,1023.88
2018-12-29T07:27:15.601Z,1023.79
2018-12-29T07:28:15.561Z,1023.87
2018-12-29T07:29:15.525Z,1023.89
2018-12-29T07:30:15.486Z,1023.83
2018-12-29T07:31:15.445Z,1023.85
2018-12-29T07:32:15.409Z,1023.82
2018-12-29T07:33:15.369Z,1023.84
2018-12-29T07:34:15.332Z,1023.81
2018-12-29T07:35:16.820Z,1023.81
2018-12-29T07:36:15.258Z,1023.83
2018-12-29T07:37:15.221Z,1023.79
2018-12-29T07:38:15.181Z,1023.79
2018-12-29T07:39:15.141Z,1023.78
2018-12-29T07:40:15.106Z,1023.81
2018-12-29T07:41:15.069Z,1023.79
2018-12-29T07:42:15.053Z,1023.79
2018-12-29T07:43:14.992Z,1023.76
2018-12-29T07:44:14.955Z,1023.74
2018-12-29T07:45:14.916Z,1023.78
2018-12-29T07:46:15.259Z,1023.75
2018-12-29T07:47:14.842Z,1023.67
2018-12-29T07:48:14.801Z,1023.73
2018-12-29T07:49:14.766Z,1023.69
2018-12-29T07:50:14.729Z,1023.65
2018-12-29T07:51:14.690Z,1023.69
2018-12-29T07:52:14.652Z,1023.61
2018-12-29T07:53:14.616Z,1023.46
2018-12-29T07:54:14.581Z,1023.63
2018-12-29T07:55:14.542Z,1023.58
2018-12-29T07:56:14.499Z,1023.67
2018-12-29T07:57:14.468Z,1023.63
2018-12-29T07:58:14.435Z,1023.61
2018-12-29T07:59:14.391Z,1023.62
2018-12-29T08:00:14.864Z,1023.60
2018-12-29T08:01:14.315Z,1023.60
2018-12-29T08:02:14.275Z,1023.77
2018-12-29T08:03:14.239Z,1023.74
2018-12-29T08:04:14.204Z,1023.82
2018-12-29T08:05:14.165Z,1023.81
2018-12-29T08:06:14.124Z,1023.61
2018-12-29T08:07:14.087Z,1023.81
2018-12-29T08:08:14.051Z,1023.79
2018-12-29T08:09:14.015Z,1023.66
2018-12-29T08:10:13.974Z,1023.66
2018-12-29T08:11:13.935Z,1023.77
2018-12-29T08:12:13.961Z,1023.79
2018-12-29T08:13:13.862Z,1023.67
2018-12-29T08:14:13.824Z,1023.69
2018-12-29T08:15:13.802Z,1023.63
2018-12-29T08:16:13.750Z,1023.54
2018-12-29T08:17:13.711Z,1023.60
2018-12-29T08:18:13.673Z,1023.62
2018-12-29T08:19:13.636Z,1023.54
2018-12-29T08:20:13.597Z,1023.52
2018-12-29T08:21:13.560Z,1023.57
2018-12-29T08:22:13.523Z,1023.57
2018-12-29T08:23:13.489Z,1023.57
2018-12-29T08:24:13.447Z,1023.59
2018-12-29T08:25:13.410Z,1023.47
2018-12-29T08:26:13.372Z,1023.58
2018-12-29T08:27:13.334Z,1023.56
2018-12-29T08:28:13.312Z,1023.57
2018-12-29T08:29:13.260Z,1023.51
2018-12-29T08:30:13.223Z,1023.55
2018-12-29T08:31:13.182Z,1023.54
2018-12-29T08:32:13.144Z,1023.61
2018-12-29T08:33:13.106Z,1023.60
2018-12-29T08:34:13.071Z,1023.52
2018-12-29T08:35:13.033Z,1023.57
2018-12-29T08:36:12.996Z,1023.56
2018-12-29T08:37:12.956Z,1023.56
2018-12-29T08:38:12.921Z,1023.63
2018-12-29T08:39:12.881Z,1023.56
2018-12-29T08:40:12.848Z,1023.59
2018-12-29T08:41:12.806Z,1023.67
2018-12-29T08:42:12.770Z,1023.65
2018-12-29T08:43:12.733Z,1023.66
2018-12-29T08:44:12.694Z,1023.67
2018-12-29T08:45:12.656Z,1023.64
2018-12-29T08:46:13.485Z,1023.68
2018-12-29T08:47:12.579Z,1023.60
2018-12-29T08:48:13.489Z,1023.64
2018-12-29T08:49:12.505Z,1023.73
2018-12-29T08:50:13.212Z,1023.66
2018-12-29T08:51:12.428Z,1023.71
2018-12-29T08:52:12.394Z,1023.71
2018-12-29T08:53:12.356Z,1023.74
2018-12-29T08:54:12.315Z,1023.75
2018-12-29T08:55:12.279Z,1023.75
2018-12-29T08:56:12.242Z,1023.73
2018-12-29T08:57:12.206Z,1023.68
2018-12-29T08:58:12.166Z,1023.72
2018-12-29T08:59:12.129Z,1023.69
2018-12-29T09:00:12.090Z,1023.72
2018-12-29T09:01:12.051Z,1023.73
2018-12-29T09:02:12.021Z,1023.73
2018-12-29T09:03:11.981Z,1023.75
2018-12-29T09:04:11.942Z,1023.72
2018-12-29T09:05:11.906Z,1023.73
2018-12-29T09:06:11.869Z,1023.73
2018-12-29T09:07:11.829Z,1023.78
2018-12-29T09:08:11.786Z,1023.73
2018-12-29T09:09:11.756Z,1023.85
2018-12-29T09:10:11.778Z,1023.77
2018-12-29T09:11:11.680Z,1023.86
2018-12-29T09:12:11.644Z,1023.81
2018-12-29T09:13:11.764Z,1023.81
2018-12-29T09:14:11.567Z,1023.79
2018-12-29T09:15:11.545Z,1023.82
2018-12-29T09:16:11.496Z,1023.79
2018-12-29T09:17:12.237Z,1023.79
2018-12-29T09:18:11.417Z,1023.80
2018-12-29T09:19:12.076Z,1023.77
2018-12-29T09:20:11.344Z,1023.75
2018-12-29T09:21:11.310Z,1023.77
2018-12-29T09:22:11.273Z,1023.85
2018-12-29T09:23:11.234Z,1023.84
2018-12-29T09:24:11.192Z,1023.78
2018-12-29T09:25:11.151Z,1023.75
2018-12-29T09:26:11.119Z,1023.75
2018-12-29T09:27:11.086Z,1023.63
2018-12-29T09:28:11.048Z,1023.68
2018-12-29T09:29:11.008Z,1023.60
2018-12-29T09:30:10.987Z,1023.66
2018-12-29T09:31:10.934Z,1023.60
2018-12-29T09:32:10.900Z,1023.64
2018-12-29T09:33:10.858Z,1023.62
2018-12-29T09:34:10.819Z,1023.66
2018-12-29T09:35:10.783Z,1023.63
2018-12-29T09:36:10.760Z,1023.60
2018-12-29T09:37:10.710Z,1023.58
2018-12-29T09:38:10.668Z,1023.54
2018-12-29T09:39:10.634Z,1023.60
2018-12-29T09:40:10.597Z,1023.60
2018-12-29T09:41:10.559Z,1023.53
2018-12-29T09:42:10.527Z,1023.45
2018-12-29T09:43:10.489Z,1023.52
2018-12-29T09:44:10.451Z,1023.56
2018-12-29T09:45:10.409Z,1023.60
2018-12-29T09:46:10.365Z,1023.34
2018-12-29T09:47:10.336Z,1023.52
2018-12-29T09:48:10.310Z,1023.49
2018-12-29T09:49:10.264Z,1023.53
2018-12-29T09:50:10.222Z,1023.44
2018-12-29T09:51:10.187Z,1023.45
2018-12-29T09:52:10.157Z,1023.38
2018-12-29T09:53:10.112Z,1023.42
2018-12-29T09:54:10.075Z,1023.28
2018-12-29T09:55:10.035Z,1023.29
2018-12-29T09:56:10.001Z,1023.26
2018-12-29T09:57:10.320Z,1023.27
2018-12-29T09:58:09.926Z,1023.18
2018-12-29T09:59:09.888Z,1023.26
2018-12-29T10:00:09.853Z,1023.23
2018-12-29T10:01:09.812Z,1023.20
2018-12-29T10:02:09.777Z,1023.33
2018-12-29T10:03:10.288Z,1023.32
2018-12-29T10:04:09.701Z,1023.30
2018-12-29T10:05:09.664Z,1023.32
2018-12-29T10:06:09.623Z,1023.32
2018-12-29T10:07:09.593Z,1023.32
2018-12-29T10:08:09.598Z,1023.35
2018-12-29T10:09:09.518Z,1023.30
2018-12-29T10:10:09.480Z,1023.28
2018-12-29T10:11:09.443Z,1023.23
2018-12-29T10:12:09.406Z,1023.25
2018-12-29T10:13:09.365Z,1023.18
2018-12-29T10:14:09.327Z,1023.28
2018-12-29T10:15:09.293Z,1023.21
2018-12-29T10:16:09.257Z,1023.16
2018-12-29T10:17:09.218Z,1023.17
2018-12-29T10:18:09.183Z,1023.04
2018-12-29T10:19:09.151Z,1023.09
2018-12-29T10:20:09.106Z,1023.12
2018-12-29T10:21:09.108Z,1023.04
2018-12-29T10:22:09.034Z,1023.01
2018-12-29T10:23:08.998Z,1023.04
2018-12-29T10:24:08.961Z,1022.98
2018-12-29T10:25:08.922Z,1023.01
2018-12-29T10:26:08.884Z,1022.98
2018-12-29T10:27:08.892Z,1022.85
2018-12-29T10:28:08.822Z,1022.85
2018-12-29T10:29:08.786Z,1022.92
2018-12-29T10:30:08.742Z,1022.87
2018-12-29T10:31:08.694Z,1022.94
2018-12-29T10:32:08.668Z,1022.89
2018-12-29T10:33:08.630Z,1022.93
2018-12-29T10:34:08.618Z,1022.88
2018-12-29T10:35:08.560Z,1022.81
2018-12-29T10:36:08.520Z,1022.86
2018-12-29T10:37:08.485Z,1022.83
2018-12-29T10:38:08.446Z,1022.83
2018-12-29T10:39:08.412Z,1022.84
2018-12-29T10:40:08.593Z,1022.78
2018-12-29T10:41:08.335Z,1022.75
2018-12-29T10:42:08.299Z,1022.76
2018-12-29T10:43:08.263Z,1022.66
2018-12-29T10:44:08.227Z,1022.72
2018-12-29T10:45:08.191Z,1022.70
2018-12-29T10:46:08.153Z,1022.72
2018-12-29T10:47:08.118Z,1022.72
2018-12-29T10:48:08.083Z,1022.63
2018-12-29T10:49:08.046Z,1022.53
2018-12-29T10:50:08.006Z,1022.59
2018-12-29T10:51:07.970Z,1022.64
2018-12-29T10:52:07.932Z,1022.64
2018-12-29T10:53:07.897Z,1022.53
2018-12-29T10:54:07.854Z,1022.67
2018-12-29T10:55:07.826Z,1022.67
2018-12-29T10:56:07.790Z,1022.73
2018-12-29T10:57:07.752Z,1022.70
2018-12-29T10:58:07.716Z,1022.65
2018-12-29T10:59:07.679Z,1022.67
2018-12-29T11:00:07.639Z,1022.58
2018-12-29T11:01:07.619Z,1022.56
2018-12-29T11:02:07.570Z,1022.61
2018-12-29T11:03:07.531Z,1022.55
2018-12-29T11:04:07.512Z,1022.65
2018-12-29T11:05:07.459Z,1022.69
2018-12-29T11:06:07.428Z,1022.69
2018-12-29T11:07:07.386Z,1022.72
2018-12-29T11:08:07.347Z,1022.76
2018-12-29T11:09:07.315Z,1022.72
2018-12-29T11:10:07.277Z,1022.80
2018-12-29T11:11:07.240Z,1022.78
2018-12-29T11:12:07.203Z,1022.76
2018-12-29T11:13:07.166Z,1022.70
2018-12-29T11:14:07.129Z,1022.57
2018-12-29T11:15:07.096Z,1022.63
2018-12-29T11:16:07.059Z,1022.60
2018-12-29T11:17:07.024Z,1022.55
2018-12-29T11:18:06.988Z,1022.50
2018-12-29T11:19:06.954Z,1022.55
2018-12-29T11:20:06.912Z,1022.47
2018-12-29T11:21:06.878Z,1022.47
2018-12-29T11:22:06.843Z,1022.49
2018-12-29T11:23:06.807Z,1022.31
2018-12-29T11:24:06.773Z,1022.35
2018-12-29T11:25:06.734Z,1022.33
2018-12-29T11:26:06.698Z,1022.32
2018-12-29T11:27:06.661Z,1022.25
2018-12-29T11:28:06.623Z,1022.13
2018-12-29T11:29:06.589Z,1022.01
2018-12-29T11:30:06.549Z,1021.93
2018-12-29T11:31:06.517Z,1021.89
2018-12-29T11:32:06.481Z,1021.98
2018-12-29T11:33:06.446Z,1021.97
2018-12-29T11:34:06.412Z,1022.02
2018-12-29T11:35:06.374Z,1021.99
2018-12-29T11:36:06.340Z,1021.99
2018-12-29T11:37:06.303Z,1021.98
2018-12-29T11:38:06.266Z,1021.96
2018-12-29T11:39:06.230Z,1021.99
2018-12-29T11:40:06.195Z,1022.07
2018-12-29T11:41:06.198Z,1022.13
2018-12-29T11:42:06.124Z,1022.12
2018-12-29T11:43:06.088Z,1022.16
2018-12-29T11:44:06.055Z,1022.20
2018-12-29T11:45:06.016Z,1022.17
2018-12-29T11:46:05.977Z,1022.08
2018-12-29T11:47:05.947Z,1022.07
2018-12-29T11:48:05.913Z,1022.12
2018-12-29T11:49:05.892Z,1022.05
2018-12-29T11:50:05.833Z,1022.08
2018-12-29T11:51:05.805Z,1022.08
2018-12-29T11:52:05.771Z,1022.13
2018-12-29T11:53:05.734Z,1022.18
2018-12-29T11:54:05.760Z,1022.14
2018-12-29T11:55:05.661Z,1022.18
2018-12-29T11:56:05.624Z,1022.12
2018-12-29T11:57:05.614Z,1022.12
2018-12-29T11:58:05.553Z,1022.08
2018-12-29T11:59:05.519Z,1022.06
2018-12-29T12:00:05.487Z,1022.04
2018-12-29T12:01:05.475Z,1022.05
2018-12-29T12:02:05.439Z,1022.07
2018-12-29T12:03:05.373Z,1022.01
2018-12-29T12:04:05.341Z,1022.02
2018-12-29T12:05:05.306Z,1022.06
2018-12-29T12:06:05.266Z,1022.04